Orcas, WA (98280)

3:25 PM PDT on August 31, 2015 (GMT -0700)
Blakely island 49 | | Change Station
CLOSE
Current Station
Personal Weather Station
Location: Washington, WA
Elevation: -3 ft
Nearby Weather Stations

Elev -3 ft 48.58 °N, 122.82 °W | Updated 6 seconds ago

Overcast
Overcast
59.0 °F
Feels Like 59.0 °F
N
4.0
Wind Variable Wind from SE
Gusts 6.0 mph

Today
High -- | Low -- °F
--% Chance of Precip.
Yesterday
High -- | Low -- °F
Precip. -- in
6:27 AM 7:55 PM
Waning Gibbous, 93% visible
Pressure 29.86 in
Visibility 4.0 miles
Clouds Overcast 800 ft
Dew Point 57 °F
Humidity 94%
Rainfall in
Snow Depth Not available.
UV 2 out of 12
Pollen .50 out of 12
Air Quality Not available.
Flu Activity Not available.
METAR KORS 312215Z AUTO 19007G14KT 030V040 4SM -RA OVC008 15/14 A2986 RMK AO2 P0001
Pressure 29.86 in
Visibility 4.0 miles
Clouds Overcast 800 ft
Dew Point 57 °F
Humidity 94%
Rainfall in
Snow Depth Not available.
UV 2 out of 12
Pollen .50 out of 12
Air Quality Not available.
Flu Activity Not available.
METAR KORS 312215Z AUTO 19007G14KT 030V040 4SM -RA OVC008 15/14 A2986 RMK AO2 P0001

10-Day Weather Forecast

×

Almanac

Astronomy

Aug. 31, 2015 Rise Set
Actual Time
Civil Twilight
Nautical Twilight
Astronomical Twilight
Moon
Length of Visible Light
Length of Day
Tomorrow will be .
, % of the Moon is Illuminated

Today's Extremes

State Highs State Lows

Community

WunderPhotos

Upload Photos

1,851,390 photos uploaded!

WunderBlogs® & News

Nearby

Air Quality

  Air Quality AQ Index Pollutant
Not available.

Snow Depth

Station Depth Elevation

Earthquake Activity

City Distance Mag. Time & Date
Minimum magnitude displayed is 2.5.

Coastal Water Temperatures

Place Temperature

Stations

Nearby Weather Stations

Station Location Temp. Windchill Dew Point Humidity Wind Precip. Elev Updated Type